Repto San Felipe, Puerto Rico
Current Conditions -  °F | °C
As of 11:53 AM on Wednesday 26 Nov 2014 (Local Time) from TJNR Reporting Station
Few Clouds Few Clouds  
Wind Chill: 85°   Ceiling: Unl
Heat Index: 92°   Visibility: 10mi
Dew Point: 74°   Wind: 10mph
Humidity: 69%   Direction: 90°E
Pressure: 30.05"   Gusts: NA
Location:  18.1494°N, 65.8294°W
Report Text: TJNR 261553Z AUTO 09009KT 10SM FEW030 29/23 A3005 RMK AO2 SLP176 T02940233 $
Loading
Personal Weather Stations






























Interactive Weather Map New forecast layout! Learn more

10-Day Weather Forecast

Advertisements
Track Severe Weather on mobile